sensor_id;sensor_type;location;lat;lon;timestamp;temperature;humidity
12948;DHT22;6539;49.476;8.484;2023-09-19T00:02:56;17.70;99.90
12948;DHT22;6539;49.476;8.484;2023-09-19T00:05:45;17.60;99.90
12948;DHT22;6539;49.476;8.484;2023-09-19T00:08:34;17.70;99.90
12948;DHT22;6539;49.476;8.484;2023-09-19T00:11:20;17.60;99.90
12948;DHT22;6539;49.476;8.484;2023-09-19T00:14:14;17.70;99.90
12948;DHT22;6539;49.476;8.484;2023-09-19T00:17:00;17.70;99.90
12948;DHT22;6539;49.476;8.484;2023-09-19T00:19:51;17.70;99.90
12948;DHT22;6539;49.476;8.484;2023-09-19T00:22:40;17.60;99.90
12948;DHT22;6539;49.476;8.484;2023-09-19T00:25:40;17.60;99.90
12948;DHT22;6539;49.476;8.484;2023-09-19T00:28:27;17.70;99.90
12948;DHT22;6539;49.476;8.484;2023-09-19T00:31:17;17.60;99.90
12948;DHT22;6539;49.476;8.484;2023-09-19T00:34:04;17.60;99.90
12948;DHT22;6539;49.476;8.484;2023-09-19T00:36:51;17.60;99.90
12948;DHT22;6539;49.476;8.484;2023-09-19T00:39:38;17.60;99.90
12948;DHT22;6539;49.476;8.484;2023-09-19T00:42:26;17.60;99.90
12948;DHT22;6539;49.476;8.484;2023-09-19T00:45:15;17.60;99.90
12948;DHT22;6539;49.476;8.484;2023-09-19T00:48:02;17.60;99.90
12948;DHT22;6539;49.476;8.484;2023-09-19T00:50:55;17.60;99.90
12948;DHT22;6539;49.476;8.484;2023-09-19T00:53:46;17.60;99.90
12948;DHT22;6539;49.476;8.484;2023-09-19T00:56:35;17.70;99.90
12948;DHT22;6539;49.476;8.484;2023-09-19T00:59:23;17.70;99.90
12948;DHT22;6539;49.476;8.484;2023-09-19T01:02:09;17.70;99.90
12948;DHT22;6539;49.476;8.484;2023-09-19T01:04:59;17.70;99.90
12948;DHT22;6539;49.476;8.484;2023-09-19T01:07:50;17.60;99.90
12948;DHT22;6539;49.476;8.484;2023-09-19T01:11:01;17.60;99.90
12948;DHT22;6539;49.476;8.484;2023-09-19T01:17:45;17.50;99.90
12948;DHT22;6539;49.476;8.484;2023-09-19T01:21:04;17.50;99.90
12948;DHT22;6539;49.476;8.484;2023-09-19T01:24:10;17.50;99.90
12948;DHT22;6539;49.476;8.484;2023-09-19T01:30:27;17.40;99.90
12948;DHT22;6539;49.476;8.484;2023-09-19T01:33:22;17.40;99.90
12948;DHT22;6539;49.476;8.484;2023-09-19T01:36:08;17.50;99.90
12948;DHT22;6539;49.476;8.484;2023-09-19T01:38:55;17.50;99.90
12948;DHT22;6539;49.476;8.484;2023-09-19T01:45:03;17.60;99.90
12948;DHT22;6539;49.476;8.484;2023-09-19T01:47:52;17.70;99.90
12948;DHT22;6539;49.476;8.484;2023-09-19T01:50:55;17.70;99.90
12948;DHT22;6539;49.476;8.484;2023-09-19T01:57:14;17.70;99.90
12948;DHT22;6539;49.476;8.484;2023-09-19T02:00:08;17.80;99.90
12948;DHT22;6539;49.476;8.484;2023-09-19T02:03:00;17.80;99.90
12948;DHT22;6539;49.476;8.484;2023-09-19T02:05:50;17.80;99.90
12948;DHT22;6539;49.476;8.484;2023-09-19T02:08:39;17.80;99.90
12948;DHT22;6539;49.476;8.484;2023-09-19T02:11:25;17.80;99.90
12948;DHT22;6539;49.476;8.484;2023-09-19T02:14:11;17.80;99.90
12948;DHT22;6539;49.476;8.484;2023-09-19T02:16:58;17.80;99.90
12948;DHT22;6539;49.476;8.484;2023-09-19T02:19:44;17.80;99.90
12948;DHT22;6539;49.476;8.484;2023-09-19T02:22:30;17.70;99.90
12948;DHT22;6539;49.476;8.484;2023-09-19T02:25:16;17.70;99.90
12948;DHT22;6539;49.476;8.484;2023-09-19T02:28:05;17.70;99.90
12948;DHT22;6539;49.476;8.484;2023-09-19T02:30:52;17.70;99.90
12948;DHT22;6539;49.476;8.484;2023-09-19T02:33:38;17.70;99.90
12948;DHT22;6539;49.476;8.484;2023-09-19T02:36:24;17.60;99.90
12948;DHT22;6539;49.476;8.484;2023-09-19T02:39:10;17.70;99.90
12948;DHT22;6539;49.476;8.484;2023-09-19T02:41:57;17.70;99.90
12948;DHT22;6539;49.476;8.484;2023-09-19T02:44:45;17.70;99.90
12948;DHT22;6539;49.476;8.484;2023-09-19T02:47:32;17.70;99.90
12948;DHT22;6539;49.476;8.484;2023-09-19T02:50:18;17.70;99.90
12948;DHT22;6539;49.476;8.484;2023-09-19T02:53:05;17.60;99.90
12948;DHT22;6539;49.476;8.484;2023-09-19T02:55:52;17.60;99.90
12948;DHT22;6539;49.476;8.484;2023-09-19T02:58:41;17.60;99.90
12948;DHT22;6539;49.476;8.484;2023-09-19T03:01:30;17.60;99.90
12948;DHT22;6539;49.476;8.484;2023-09-19T03:04:17;17.60;99.90
12948;DHT22;6539;49.476;8.484;2023-09-19T03:07:05;17.50;99.90
12948;DHT22;6539;49.476;8.484;2023-09-19T03:09:56;17.60;99.90
12948;DHT22;6539;49.476;8.484;2023-09-19T03:12:43;17.50;99.90
12948;DHT22;6539;49.476;8.484;2023-09-19T03:15:34;17.50;99.90
12948;DHT22;6539;49.476;8.484;2023-09-19T03:18:24;17.50;99.90
12948;DHT22;6539;49.476;8.484;2023-09-19T03:21:12;17.50;99.90
12948;DHT22;6539;49.476;8.484;2023-09-19T03:23:58;17.40;99.90
12948;DHT22;6539;49.476;8.484;2023-09-19T03:26:49;17.50;99.90
12948;DHT22;6539;49.476;8.484;2023-09-19T03:29:38;17.50;99.90
12948;DHT22;6539;49.476;8.484;2023-09-19T03:32:28;17.50;99.90
12948;DHT22;6539;49.476;8.484;2023-09-19T03:35:14;17.40;99.90
12948;DHT22;6539;49.476;8.484;2023-09-19T03:38:04;17.40;99.90
12948;DHT22;6539;49.476;8.484;2023-09-19T03:40:50;17.40;99.90
12948;DHT22;6539;49.476;8.484;2023-09-19T03:43:36;17.30;99.90
12948;DHT22;6539;49.476;8.484;2023-09-19T03:46:25;17.30;99.90
12948;DHT22;6539;49.476;8.484;2023-09-19T03:49:11;17.40;99.90
12948;DHT22;6539;49.476;8.484;2023-09-19T03:51:57;17.30;99.90
12948;DHT22;6539;49.476;8.484;2023-09-19T03:54:50;17.30;99.90
12948;DHT22;6539;49.476;8.484;2023-09-19T03:57:38;17.30;99.90
12948;DHT22;6539;49.476;8.484;2023-09-19T04:00:25;17.20;99.90
12948;DHT22;6539;49.476;8.484;2023-09-19T04:03:14;17.20;99.90
12948;DHT22;6539;49.476;8.484;2023-09-19T04:06:06;17.20;99.90
12948;DHT22;6539;49.476;8.484;2023-09-19T04:08:52;17.20;99.90
12948;DHT22;6539;49.476;8.484;2023-09-19T04:11:38;17.20;99.90
12948;DHT22;6539;49.476;8.484;2023-09-19T04:14:26;17.20;99.90
12948;DHT22;6539;49.476;8.484;2023-09-19T04:17:15;17.20;99.90
12948;DHT22;6539;49.476;8.484;2023-09-19T04:20:06;17.10;99.90
12948;DHT22;6539;49.476;8.484;2023-09-19T04:22:53;17.10;99.90
12948;DHT22;6539;49.476;8.484;2023-09-19T04:25:41;17.10;99.90
12948;DHT22;6539;49.476;8.484;2023-09-19T04:28:27;17.10;99.90
12948;DHT22;6539;49.476;8.484;2023-09-19T04:31:15;17.00;99.90
12948;DHT22;6539;49.476;8.484;2023-09-19T04:34:02;17.00;99.90
12948;DHT22;6539;49.476;8.484;2023-09-19T04:36:49;17.00;99.90
12948;DHT22;6539;49.476;8.484;2023-09-19T04:39:37;17.00;99.90
12948;DHT22;6539;49.476;8.484;2023-09-19T04:42:24;17.00;99.90
12948;DHT22;6539;49.476;8.484;2023-09-19T04:45:13;17.00;99.90
12948;DHT22;6539;49.476;8.484;2023-09-19T04:48:02;17.00;99.90
12948;DHT22;6539;49.476;8.484;2023-09-19T04:50:54;16.90;99.90
12948;DHT22;6539;49.476;8.484;2023-09-19T04:53:42;16.90;99.90
12948;DHT22;6539;49.476;8.484;2023-09-19T04:56:31;16.90;99.90
12948;DHT22;6539;49.476;8.484;2023-09-19T04:59:19;16.80;99.90
12948;DHT22;6539;49.476;8.484;2023-09-19T05:02:08;16.80;99.90
12948;DHT22;6539;49.476;8.484;2023-09-19T05:04:54;16.80;99.90
12948;DHT22;6539;49.476;8.484;2023-09-19T05:07:41;16.70;99.90
12948;DHT22;6539;49.476;8.484;2023-09-19T05:10:27;16.70;99.90
12948;DHT22;6539;49.476;8.484;2023-09-19T05:13:14;16.80;99.90
12948;DHT22;6539;49.476;8.484;2023-09-19T05:16:01;16.70;99.90
12948;DHT22;6539;49.476;8.484;2023-09-19T05:18:49;16.70;99.90
12948;DHT22;6539;49.476;8.484;2023-09-19T05:21:35;16.70;99.90
12948;DHT22;6539;49.476;8.484;2023-09-19T05:24:21;16.70;99.90
12948;DHT22;6539;49.476;8.484;2023-09-19T05:27:09;16.70;99.90
12948;DHT22;6539;49.476;8.484;2023-09-19T05:29:55;16.70;99.90
12948;DHT22;6539;49.476;8.484;2023-09-19T05:32:45;16.80;99.90
12948;DHT22;6539;49.476;8.484;2023-09-19T05:35:37;16.80;99.90
12948;DHT22;6539;49.476;8.484;2023-09-19T05:38:25;16.80;99.90
12948;DHT22;6539;49.476;8.484;2023-09-19T05:41:12;16.90;99.90
12948;DHT22;6539;49.476;8.484;2023-09-19T05:44:02;16.90;99.90
12948;DHT22;6539;49.476;8.484;2023-09-19T05:46:51;16.90;99.90
12948;DHT22;6539;49.476;8.484;2023-09-19T05:49:37;16.90;99.90
12948;DHT22;6539;49.476;8.484;2023-09-19T05:52:23;16.90;99.90
12948;DHT22;6539;49.476;8.484;2023-09-19T05:55:12;16.90;99.90
12948;DHT22;6539;49.476;8.484;2023-09-19T05:57:58;17.00;99.90
12948;DHT22;6539;49.476;8.484;2023-09-19T06:00:45;17.00;99.90
12948;DHT22;6539;49.476;8.484;2023-09-19T06:03:36;17.00;99.90
12948;DHT22;6539;49.476;8.484;2023-09-19T06:06:24;17.00;99.90
12948;DHT22;6539;49.476;8.484;2023-09-19T06:09:10;17.10;99.90
12948;DHT22;6539;49.476;8.484;2023-09-19T06:11:57;17.10;99.90
12948;DHT22;6539;49.476;8.484;2023-09-19T06:14:49;17.10;99.90
12948;DHT22;6539;49.476;8.484;2023-09-19T06:17:37;17.10;99.90
12948;DHT22;6539;49.476;8.484;2023-09-19T06:20:28;17.10;99.90
12948;DHT22;6539;49.476;8.484;2023-09-19T06:23:17;17.10;99.90
12948;DHT22;6539;49.476;8.484;2023-09-19T06:26:06;17.10;99.90
12948;DHT22;6539;49.476;8.484;2023-09-19T06:28:56;17.10;99.90
12948;DHT22;6539;49.476;8.484;2023-09-19T06:31:42;17.10;99.90
12948;DHT22;6539;49.476;8.484;2023-09-19T06:34:30;17.20;99.90
12948;DHT22;6539;49.476;8.484;2023-09-19T06:37:18;17.20;99.90
12948;DHT22;6539;49.476;8.484;2023-09-19T06:40:08;17.20;99.90
12948;DHT22;6539;49.476;8.484;2023-09-19T06:43:02;17.10;99.90
12948;DHT22;6539;49.476;8.484;2023-09-19T06:45:49;17.20;99.90
12948;DHT22;6539;49.476;8.484;2023-09-19T06:48:37;17.30;99.90
12948;DHT22;6539;49.476;8.484;2023-09-19T06:51:23;17.30;99.90
12948;DHT22;6539;49.476;8.484;2023-09-19T06:54:10;17.30;99.90
12948;DHT22;6539;49.476;8.484;2023-09-19T06:56:58;17.30;99.90
12948;DHT22;6539;49.476;8.484;2023-09-19T06:59:44;17.40;99.90
12948;DHT22;6539;49.476;8.484;2023-09-19T07:02:32;17.40;99.90
12948;DHT22;6539;49.476;8.484;2023-09-19T07:05:18;17.30;99.90
12948;DHT22;6539;49.476;8.484;2023-09-19T07:08:05;17.40;99.90
12948;DHT22;6539;49.476;8.484;2023-09-19T07:10:52;17.40;99.90
12948;DHT22;6539;49.476;8.484;2023-09-19T07:13:39;17.50;99.90
12948;DHT22;6539;49.476;8.484;2023-09-19T07:16:28;17.50;99.90
12948;DHT22;6539;49.476;8.484;2023-09-19T07:19:15;17.60;99.90
12948;DHT22;6539;49.476;8.484;2023-09-19T07:22:01;17.60;99.90
12948;DHT22;6539;49.476;8.484;2023-09-19T07:24:48;17.70;99.90
12948;DHT22;6539;49.476;8.484;2023-09-19T07:27:41;17.80;99.90
12948;DHT22;6539;49.476;8.484;2023-09-19T07:30:30;17.90;99.90
12948;DHT22;6539;49.476;8.484;2023-09-19T07:33:17;17.90;99.90
12948;DHT22;6539;49.476;8.484;2023-09-19T07:36:03;18.00;99.90
12948;DHT22;6539;49.476;8.484;2023-09-19T07:38:52;18.10;99.90
12948;DHT22;6539;49.476;8.484;2023-09-19T07:41:40;18.10;99.90
12948;DHT22;6539;49.476;8.484;2023-09-19T07:44:27;18.10;99.90
12948;DHT22;6539;49.476;8.484;2023-09-19T07:47:15;18.30;99.90
12948;DHT22;6539;49.476;8.484;2023-09-19T07:50:02;18.30;99.90
12948;DHT22;6539;49.476;8.484;2023-09-19T07:52:49;18.40;99.90
12948;DHT22;6539;49.476;8.484;2023-09-19T07:55:39;18.40;99.90
12948;DHT22;6539;49.476;8.484;2023-09-19T07:58:32;18.50;99.90
12948;DHT22;6539;49.476;8.484;2023-09-19T08:01:21;18.70;99.90
12948;DHT22;6539;49.476;8.484;2023-09-19T08:04:09;18.80;99.90
12948;DHT22;6539;49.476;8.484;2023-09-19T08:06:57;18.70;99.90
12948;DHT22;6539;49.476;8.484;2023-09-19T08:09:48;18.80;99.90
12948;DHT22;6539;49.476;8.484;2023-09-19T08:12:37;18.80;99.90
12948;DHT22;6539;49.476;8.484;2023-09-19T08:15:23;18.90;99.90
12948;DHT22;6539;49.476;8.484;2023-09-19T08:18:11;19.00;99.90
12948;DHT22;6539;49.476;8.484;2023-09-19T08:20:57;19.00;99.90
12948;DHT22;6539;49.476;8.484;2023-09-19T08:23:48;19.00;99.90
12948;DHT22;6539;49.476;8.484;2023-09-19T08:26:34;19.10;99.90
12948;DHT22;6539;49.476;8.484;2023-09-19T08:29:26;19.10;99.90
12948;DHT22;6539;49.476;8.484;2023-09-19T08:32:15;19.20;99.90
12948;DHT22;6539;49.476;8.484;2023-09-19T08:35:04;19.10;99.90
12948;DHT22;6539;49.476;8.484;2023-09-19T08:37:51;19.20;99.90
12948;DHT22;6539;49.476;8.484;2023-09-19T08:40:38;19.30;99.90
12948;DHT22;6539;49.476;8.484;2023-09-19T08:43:27;19.40;99.90
12948;DHT22;6539;49.476;8.484;2023-09-19T08:46:16;19.40;99.90
12948;DHT22;6539;49.476;8.484;2023-09-19T08:49:05;19.40;99.90
12948;DHT22;6539;49.476;8.484;2023-09-19T08:52:41;19.40;99.90
12948;DHT22;6539;49.476;8.484;2023-09-19T08:55:28;19.40;99.90
12948;DHT22;6539;49.476;8.484;2023-09-19T08:58:19;19.40;99.90
12948;DHT22;6539;49.476;8.484;2023-09-19T09:01:09;19.30;99.90
12948;DHT22;6539;49.476;8.484;2023-09-19T09:03:58;19.30;99.90
12948;DHT22;6539;49.476;8.484;2023-09-19T09:06:45;19.30;99.90
12948;DHT22;6539;49.476;8.484;2023-09-19T09:09:36;19.50;99.90
12948;DHT22;6539;49.476;8.484;2023-09-19T09:12:23;19.60;99.90
12948;DHT22;6539;49.476;8.484;2023-09-19T09:15:12;19.50;99.90
12948;DHT22;6539;49.476;8.484;2023-09-19T09:18:02;19.60;99.90
12948;DHT22;6539;49.476;8.484;2023-09-19T09:20:50;19.60;99.90
12948;DHT22;6539;49.476;8.484;2023-09-19T09:23:36;19.60;99.90
12948;DHT22;6539;49.476;8.484;2023-09-19T09:26:41;19.70;99.90
12948;DHT22;6539;49.476;8.484;2023-09-19T09:29:46;19.80;99.90
12948;DHT22;6539;49.476;8.484;2023-09-19T09:32:35;19.80;99.90
12948;DHT22;6539;49.476;8.484;2023-09-19T09:35:25;19.80;99.90
12948;DHT22;6539;49.476;8.484;2023-09-19T09:38:11;19.60;99.90
12948;DHT22;6539;49.476;8.484;2023-09-19T09:41:00;19.70;99.90
12948;DHT22;6539;49.476;8.484;2023-09-19T09:43:52;19.50;99.90
12948;DHT22;6539;49.476;8.484;2023-09-19T09:46:48;19.30;99.90
12948;DHT22;6539;49.476;8.484;2023-09-19T09:49:37;19.20;99.90
12948;DHT22;6539;49.476;8.484;2023-09-19T09:52:25;19.40;99.90
12948;DHT22;6539;49.476;8.484;2023-09-19T09:55:11;19.60;99.90
12948;DHT22;6539;49.476;8.484;2023-09-19T09:58:16;19.70;99.90
12948;DHT22;6539;49.476;8.484;2023-09-19T10:01:08;19.80;99.90
12948;DHT22;6539;49.476;8.484;2023-09-19T10:03:58;20.00;99.90
12948;DHT22;6539;49.476;8.484;2023-09-19T10:06:48;20.20;99.90
12948;DHT22;6539;49.476;8.484;2023-09-19T10:09:53;20.50;99.90
12948;DHT22;6539;49.476;8.484;2023-09-19T10:13:00;20.50;99.90
12948;DHT22;6539;49.476;8.484;2023-09-19T10:15:49;20.30;99.90
12948;DHT22;6539;49.476;8.484;2023-09-19T10:18:41;20.40;99.90
12948;DHT22;6539;49.476;8.484;2023-09-19T10:21:30;20.70;99.90
12948;DHT22;6539;49.476;8.484;2023-09-19T10:24:18;21.00;99.90
12948;DHT22;6539;49.476;8.484;2023-09-19T10:27:06;21.10;99.90
12948;DHT22;6539;49.476;8.484;2023-09-19T10:29:59;21.30;99.90
12948;DHT22;6539;49.476;8.484;2023-09-19T10:32:48;21.70;99.90
12948;DHT22;6539;49.476;8.484;2023-09-19T10:35:48;22.00;99.90
12948;DHT22;6539;49.476;8.484;2023-09-19T10:38:37;21.70;99.90
12948;DHT22;6539;49.476;8.484;2023-09-19T10:41:29;21.20;99.90
12948;DHT22;6539;49.476;8.484;2023-09-19T10:44:26;21.30;99.90
12948;DHT22;6539;49.476;8.484;2023-09-19T10:47:17;21.40;99.90
12948;DHT22;6539;49.476;8.484;2023-09-19T10:50:08;21.80;99.90
12948;DHT22;6539;49.476;8.484;2023-09-19T10:52:55;22.40;99.90
12948;DHT22;6539;49.476;8.484;2023-09-19T10:55:56;22.60;99.90
12948;DHT22;6539;49.476;8.484;2023-09-19T10:58:47;23.10;99.90
12948;DHT22;6539;49.476;8.484;2023-09-19T11:01:53;23.10;99.90
12948;DHT22;6539;49.476;8.484;2023-09-19T11:04:44;23.20;99.90
12948;DHT22;6539;49.476;8.484;2023-09-19T11:07:57;23.30;99.90
12948;DHT22;6539;49.476;8.484;2023-09-19T11:10:48;23.00;99.90
12948;DHT22;6539;49.476;8.484;2023-09-19T11:13:36;23.00;99.90
12948;DHT22;6539;49.476;8.484;2023-09-19T11:16:26;23.30;99.90
12948;DHT22;6539;49.476;8.484;2023-09-19T11:19:13;23.60;99.90
12948;DHT22;6539;49.476;8.484;2023-09-19T11:21:59;23.80;99.90
12948;DHT22;6539;49.476;8.484;2023-09-19T11:24:45;23.80;99.90
12948;DHT22;6539;49.476;8.484;2023-09-19T11:27:31;24.00;99.90
12948;DHT22;6539;49.476;8.484;2023-09-19T11:30:26;23.80;99.90
12948;DHT22;6539;49.476;8.484;2023-09-19T11:33:28;23.60;99.90
12948;DHT22;6539;49.476;8.484;2023-09-19T11:36:35;23.00;99.90
12948;DHT22;6539;49.476;8.484;2023-09-19T11:39:25;23.30;99.90
12948;DHT22;6539;49.476;8.484;2023-09-19T11:42:47;23.70;99.90
12948;DHT22;6539;49.476;8.484;2023-09-19T11:48:43;24.40;99.90
12948;DHT22;6539;49.476;8.484;2023-09-19T11:54:30;24.70;99.90
12948;DHT22;6539;49.476;8.484;2023-09-19T11:57:20;24.80;99.90
12948;DHT22;6539;49.476;8.484;2023-09-19T12:00:19;25.00;99.90
12948;DHT22;6539;49.476;8.484;2023-09-19T12:03:10;25.10;99.90
12948;DHT22;6539;49.476;8.484;2023-09-19T12:06:00;25.00;99.90
12948;DHT22;6539;49.476;8.484;2023-09-19T12:08:48;24.90;99.90
12948;DHT22;6539;49.476;8.484;2023-09-19T12:11:44;25.00;99.90
12948;DHT22;6539;49.476;8.484;2023-09-19T12:14:30;25.10;99.90
12948;DHT22;6539;49.476;8.484;2023-09-19T12:17:17;25.60;99.90
12948;DHT22;6539;49.476;8.484;2023-09-19T12:20:04;25.70;99.90
12948;DHT22;6539;49.476;8.484;2023-09-19T12:23:00;25.70;99.90
12948;DHT22;6539;49.476;8.484;2023-09-19T12:25:47;25.90;99.70
12948;DHT22;6539;49.476;8.484;2023-09-19T12:28:41;25.90;98.90
12948;DHT22;6539;49.476;8.484;2023-09-19T12:31:28;26.30;98.20
12948;DHT22;6539;49.476;8.484;2023-09-19T12:34:19;26.20;98.30
12948;DHT22;6539;49.476;8.484;2023-09-19T12:37:18;26.40;98.00
12948;DHT22;6539;49.476;8.484;2023-09-19T12:40:15;26.40;97.00
12948;DHT22;6539;49.476;8.484;2023-09-19T12:43:03;26.60;97.00
12948;DHT22;6539;49.476;8.484;2023-09-19T12:45:51;26.20;97.00
12948;DHT22;6539;49.476;8.484;2023-09-19T12:48:42;25.60;98.20
12948;DHT22;6539;49.476;8.484;2023-09-19T12:51:35;25.40;98.60
12948;DHT22;6539;49.476;8.484;2023-09-19T12:54:22;26.10;98.40
12948;DHT22;6539;49.476;8.484;2023-09-19T12:57:08;26.20;98.10
12948;DHT22;6539;49.476;8.484;2023-09-19T13:00:11;25.90;98.50
12948;DHT22;6539;49.476;8.484;2023-09-19T13:03:37;25.30;99.60
12948;DHT22;6539;49.476;8.484;2023-09-19T13:06:36;25.50;99.90
12948;DHT22;6539;49.476;8.484;2023-09-19T13:09:31;25.70;99.90
12948;DHT22;6539;49.476;8.484;2023-09-19T13:12:36;26.10;99.50
12948;DHT22;6539;49.476;8.484;2023-09-19T13:15:25;26.50;99.10
12948;DHT22;6539;49.476;8.484;2023-09-19T13:18:15;27.10;98.40
12948;DHT22;6539;49.476;8.484;2023-09-19T13:21:12;27.30;96.60
12948;DHT22;6539;49.476;8.484;2023-09-19T13:24:21;27.00;96.80
12948;DHT22;6539;49.476;8.484;2023-09-19T13:27:12;27.30;95.90
12948;DHT22;6539;49.476;8.484;2023-09-19T13:30:04;26.60;96.80
12948;DHT22;6539;49.476;8.484;2023-09-19T13:33:05;26.30;97.40
12948;DHT22;6539;49.476;8.484;2023-09-19T13:35:57;26.20;98.00
12948;DHT22;6539;49.476;8.484;2023-09-19T13:38:43;26.40;97.90
12948;DHT22;6539;49.476;8.484;2023-09-19T13:41:29;26.40;98.00
12948;DHT22;6539;49.476;8.484;2023-09-19T13:44:18;26.40;97.70
12948;DHT22;6539;49.476;8.484;2023-09-19T13:47:04;26.40;97.20
12948;DHT22;6539;49.476;8.484;2023-09-19T13:49:55;26.30;97.30
12948;DHT22;6539;49.476;8.484;2023-09-19T13:52:41;26.50;96.90
12948;DHT22;6539;49.476;8.484;2023-09-19T13:58:16;25.70;97.80
12948;DHT22;6539;49.476;8.484;2023-09-19T14:01:05;25.40;98.40
12948;DHT22;6539;49.476;8.484;2023-09-19T14:03:53;25.40;99.20
12948;DHT22;6539;49.476;8.484;2023-09-19T14:06:43;25.20;99.90
12948;DHT22;6539;49.476;8.484;2023-09-19T14:09:30;25.10;99.90
12948;DHT22;6539;49.476;8.484;2023-09-19T14:12:19;25.10;99.90
12948;DHT22;6539;49.476;8.484;2023-09-19T14:15:08;25.00;99.90
12948;DHT22;6539;49.476;8.484;2023-09-19T14:17:58;24.90;99.90
12948;DHT22;6539;49.476;8.484;2023-09-19T14:20:46;24.60;99.90
12948;DHT22;6539;49.476;8.484;2023-09-19T14:23:36;24.50;99.90
12948;DHT22;6539;49.476;8.484;2023-09-19T14:26:27;24.10;99.90
12948;DHT22;6539;49.476;8.484;2023-09-19T14:29:16;24.10;99.90
12948;DHT22;6539;49.476;8.484;2023-09-19T14:32:02;24.10;99.90
12948;DHT22;6539;49.476;8.484;2023-09-19T14:34:51;24.10;99.90
12948;DHT22;6539;49.476;8.484;2023-09-19T14:37:38;24.10;99.90
12948;DHT22;6539;49.476;8.484;2023-09-19T14:40:27;24.10;99.90
12948;DHT22;6539;49.476;8.484;2023-09-19T14:43:16;23.90;99.90
12948;DHT22;6539;49.476;8.484;2023-09-19T14:46:06;23.90;99.90
12948;DHT22;6539;49.476;8.484;2023-09-19T14:48:58;23.90;99.90
12948;DHT22;6539;49.476;8.484;2023-09-19T14:51:49;23.90;99.90
12948;DHT22;6539;49.476;8.484;2023-09-19T14:54:40;23.80;99.90
12948;DHT22;6539;49.476;8.484;2023-09-19T14:57:27;23.60;99.90
12948;DHT22;6539;49.476;8.484;2023-09-19T15:00:15;23.30;99.90
12948;DHT22;6539;49.476;8.484;2023-09-19T15:03:02;23.30;99.90
12948;DHT22;6539;49.476;8.484;2023-09-19T15:06:08;23.30;99.90
12948;DHT22;6539;49.476;8.484;2023-09-19T15:09:00;23.40;99.90
12948;DHT22;6539;49.476;8.484;2023-09-19T15:11:46;23.70;99.90
12948;DHT22;6539;49.476;8.484;2023-09-19T15:14:37;23.70;99.90
12948;DHT22;6539;49.476;8.484;2023-09-19T15:17:24;23.50;99.90
12948;DHT22;6539;49.476;8.484;2023-09-19T15:20:11;23.50;99.90
12948;DHT22;6539;49.476;8.484;2023-09-19T15:22:59;23.40;99.90
12948;DHT22;6539;49.476;8.484;2023-09-19T15:25:49;23.40;99.90
12948;DHT22;6539;49.476;8.484;2023-09-19T15:28:38;23.30;99.90
12948;DHT22;6539;49.476;8.484;2023-09-19T15:31:24;23.30;99.90
12948;DHT22;6539;49.476;8.484;2023-09-19T15:34:11;23.30;99.90
12948;DHT22;6539;49.476;8.484;2023-09-19T15:37:01;23.40;99.90
12948;DHT22;6539;49.476;8.484;2023-09-19T15:39:47;23.30;99.90
12948;DHT22;6539;49.476;8.484;2023-09-19T15:42:35;23.30;99.90
12948;DHT22;6539;49.476;8.484;2023-09-19T15:45:24;23.10;99.90
12948;DHT22;6539;49.476;8.484;2023-09-19T15:48:11;23.00;99.90
12948;DHT22;6539;49.476;8.484;2023-09-19T15:51:03;23.10;99.90
12948;DHT22;6539;49.476;8.484;2023-09-19T15:53:51;23.10;99.90
12948;DHT22;6539;49.476;8.484;2023-09-19T15:56:39;23.20;99.90
12948;DHT22;6539;49.476;8.484;2023-09-19T15:59:31;23.10;99.90
12948;DHT22;6539;49.476;8.484;2023-09-19T16:02:20;23.20;99.90
12948;DHT22;6539;49.476;8.484;2023-09-19T16:05:06;23.30;99.90
12948;DHT22;6539;49.476;8.484;2023-09-19T16:07:55;23.20;99.90
12948;DHT22;6539;49.476;8.484;2023-09-19T16:10:41;23.10;99.90
12948;DHT22;6539;49.476;8.484;2023-09-19T16:13:30;23.10;99.90
12948;DHT22;6539;49.476;8.484;2023-09-19T16:16:17;22.90;99.90
12948;DHT22;6539;49.476;8.484;2023-09-19T16:19:05;22.80;99.90
12948;DHT22;6539;49.476;8.484;2023-09-19T16:21:55;22.80;99.90
12948;DHT22;6539;49.476;8.484;2023-09-19T16:24:44;22.80;99.90
12948;DHT22;6539;49.476;8.484;2023-09-19T16:27:32;22.80;99.90
12948;DHT22;6539;49.476;8.484;2023-09-19T16:30:18;22.80;99.90
12948;DHT22;6539;49.476;8.484;2023-09-19T16:33:05;22.70;99.90
12948;DHT22;6539;49.476;8.484;2023-09-19T16:35:51;22.70;99.90
12948;DHT22;6539;49.476;8.484;2023-09-19T16:38:39;22.60;99.90
12948;DHT22;6539;49.476;8.484;2023-09-19T16:41:25;22.50;99.90
12948;DHT22;6539;49.476;8.484;2023-09-19T16:44:11;22.50;99.90
12948;DHT22;6539;49.476;8.484;2023-09-19T16:46:57;22.50;99.90
12948;DHT22;6539;49.476;8.484;2023-09-19T16:49:46;22.40;99.90
12948;DHT22;6539;49.476;8.484;2023-09-19T16:52:34;22.40;99.90
12948;DHT22;6539;49.476;8.484;2023-09-19T16:55:20;22.30;99.90
12948;DHT22;6539;49.476;8.484;2023-09-19T16:58:09;22.30;99.90
12948;DHT22;6539;49.476;8.484;2023-09-19T17:00:59;22.30;99.90
12948;DHT22;6539;49.476;8.484;2023-09-19T17:03:48;22.20;99.90
12948;DHT22;6539;49.476;8.484;2023-09-19T17:06:34;22.10;99.90
12948;DHT22;6539;49.476;8.484;2023-09-19T17:09:24;22.10;99.90
12948;DHT22;6539;49.476;8.484;2023-09-19T17:12:10;22.00;99.90
12948;DHT22;6539;49.476;8.484;2023-09-19T17:14:59;21.90;99.90
12948;DHT22;6539;49.476;8.484;2023-09-19T17:17:45;21.90;99.90
12948;DHT22;6539;49.476;8.484;2023-09-19T17:20:31;21.90;99.90
12948;DHT22;6539;49.476;8.484;2023-09-19T17:23:18;21.80;99.90
12948;DHT22;6539;49.476;8.484;2023-09-19T17:26:05;21.80;99.90
12948;DHT22;6539;49.476;8.484;2023-09-19T17:28:53;21.80;99.90
12948;DHT22;6539;49.476;8.484;2023-09-19T17:31:44;21.70;99.90
12948;DHT22;6539;49.476;8.484;2023-09-19T17:34:30;21.70;99.90
12948;DHT22;6539;49.476;8.484;2023-09-19T17:37:16;21.60;99.90
12948;DHT22;6539;49.476;8.484;2023-09-19T17:40:07;21.60;99.90
12948;DHT22;6539;49.476;8.484;2023-09-19T17:42:58;21.50;99.90
12948;DHT22;6539;49.476;8.484;2023-09-19T17:45:44;21.50;99.90
12948;DHT22;6539;49.476;8.484;2023-09-19T17:48:31;21.40;99.90
12948;DHT22;6539;49.476;8.484;2023-09-19T17:51:17;21.40;99.90
12948;DHT22;6539;49.476;8.484;2023-09-19T17:54:04;21.30;99.90
12948;DHT22;6539;49.476;8.484;2023-09-19T17:56:50;21.30;99.90
12948;DHT22;6539;49.476;8.484;2023-09-19T17:59:36;21.20;99.90
12948;DHT22;6539;49.476;8.484;2023-09-19T18:02:22;21.10;99.90
12948;DHT22;6539;49.476;8.484;2023-09-19T18:05:16;21.00;99.90
12948;DHT22;6539;49.476;8.484;2023-09-19T18:08:09;21.10;99.90
12948;DHT22;6539;49.476;8.484;2023-09-19T18:10:58;21.00;99.90
12948;DHT22;6539;49.476;8.484;2023-09-19T18:13:49;21.00;99.90
12948;DHT22;6539;49.476;8.484;2023-09-19T18:16:39;21.00;99.90
12948;DHT22;6539;49.476;8.484;2023-09-19T18:19:27;20.90;99.90
12948;DHT22;6539;49.476;8.484;2023-09-19T18:22:14;20.90;99.90
12948;DHT22;6539;49.476;8.484;2023-09-19T18:25:01;20.90;99.90
12948;DHT22;6539;49.476;8.484;2023-09-19T18:27:47;20.80;99.90
12948;DHT22;6539;49.476;8.484;2023-09-19T18:30:33;20.80;99.90
12948;DHT22;6539;49.476;8.484;2023-09-19T18:33:20;20.80;99.90